Fruitdale, Indiana
Current Conditions -  °F | °C
As of 5:15 AM on Tuesday 27 Jan 2015 (Local Time) from K1II Reporting Station
Haze Haze  
Wind Chill: 28°   Ceiling: 1600
Heat Index: 28°   Visibility: 5mi
Dew Point: 27°   Wind: 0mph
Humidity: 93%   Direction: NA
Pressure: 29.93"   Gusts: NA
Location:  39.341°N, 86.3076°W
Report Text: K1II 271015Z AUTO 00000KT 5SM BR SCT009 BKN016 OVC023 M02/M03 A2993 RMK AO2
Loading
Personal Weather Stations






























Interactive Weather Map New forecast layout! Learn more

10-Day Weather Forecast

Advertisements
Track Severe Weather on mobile